createdAt,value
2019-02-27T00:02:05.768Z,0.51
2019-02-27T00:04:35.752Z,0.50
2019-02-27T00:07:06.120Z,0.55
2019-02-27T00:09:36.372Z,0.47
2019-02-27T00:12:06.335Z,0.50
2019-02-27T00:14:36.334Z,0.52
2019-02-27T00:17:08.187Z,0.32
2019-02-27T00:19:37.933Z,0.40
2019-02-27T00:22:07.919Z,0.41
2019-02-27T00:24:38.786Z,0.35
2019-02-27T00:27:08.985Z,0.32
2019-02-27T00:29:39.342Z,0.23
2019-02-27T00:32:09.052Z,0.26
2019-02-27T00:34:38.988Z,0.24
2019-02-27T00:37:09.191Z,0.24
2019-02-27T00:39:39.285Z,0.32
2019-02-27T00:42:09.316Z,0.31
2019-02-27T00:44:39.296Z,0.29
2019-02-27T00:47:09.201Z,0.29
2019-02-27T00:49:39.393Z,0.30
2019-02-27T00:52:09.425Z,0.33
2019-02-27T00:54:39.654Z,0.32
2019-02-27T00:57:09.716Z,0.28
2019-02-27T00:59:39.689Z,0.34
2019-02-27T01:02:09.780Z,0.25
2019-02-27T01:04:39.794Z,0.24
2019-02-27T01:07:10.063Z,0.28
2019-02-27T01:09:40.098Z,0.21
2019-02-27T01:12:10.675Z,0.27
2019-02-27T01:14:40.858Z,0.31
2019-02-27T01:17:10.800Z,0.25
2019-02-27T01:19:42.751Z,0.23
2019-02-27T01:22:12.495Z,0.21
2019-02-27T01:24:42.765Z,0.13
2019-02-27T01:27:12.787Z,0.18
2019-02-27T01:29:42.971Z,0.18
2019-02-27T01:32:13.006Z,0.06
2019-02-27T01:34:44.433Z,0.03
2019-02-27T01:37:14.982Z,-0.03
2019-02-27T01:39:44.959Z,-0.07
2019-02-27T01:42:15.049Z,-0.04
2019-02-27T01:44:46.557Z,-0.07
2019-02-27T01:47:18.909Z,-0.01
2019-02-27T01:49:49.734Z,-0.01
2019-02-27T01:52:19.747Z,-0.07
2019-02-27T01:54:49.913Z,0.01
2019-02-27T01:57:20.014Z,-0.03
2019-02-27T01:59:50.426Z,-0.09
2019-02-27T02:02:21.232Z,-0.08
2019-02-27T02:04:53.792Z,-0.03
2019-02-27T02:07:23.010Z,0.04
2019-02-27T02:09:55.106Z,0.04
2019-02-27T02:12:28.036Z,0.07
2019-02-27T02:15:09.438Z,-0.01
2019-02-27T02:18:15.849Z,-0.16
2019-02-27T02:21:19.565Z,-0.18
2019-02-27T02:24:21.624Z,-0.28
2019-02-27T02:27:26.284Z,-0.27
2019-02-27T02:30:37.917Z,-0.23
2019-02-27T02:33:36.017Z,-0.31
2019-02-27T02:36:35.292Z,-0.24
2019-02-27T02:39:32.569Z,-0.23
2019-02-27T02:42:17.483Z,-0.31
2019-02-27T02:45:23.044Z,-0.41
2019-02-27T02:48:04.023Z,-0.46
2019-02-27T02:51:03.073Z,-0.60
2019-02-27T02:54:36.312Z,-0.60
2019-02-27T02:57:37.160Z,-0.60
2019-02-27T03:00:39.227Z,-0.62
2019-02-27T03:03:25.411Z,-0.77
2019-02-27T03:06:58.190Z,-0.83
2019-02-27T03:10:07.363Z,-0.88
2019-02-27T03:13:33.207Z,-0.97
2019-02-27T03:16:13.696Z,-1.03
2019-02-27T03:19:41.259Z,-1.09
2019-02-27T03:22:41.637Z,-1.12
2019-02-27T03:25:42.148Z,-1.15
2019-02-27T03:29:15.784Z,-1.17
2019-02-27T03:32:02.035Z,-1.25
2019-02-27T03:34:52.022Z,-1.27
2019-02-27T03:37:38.159Z,-1.34
2019-02-27T03:40:45.106Z,-1.36
2019-02-27T03:43:45.671Z,-1.54
2019-02-27T03:47:01.808Z,-1.63
2019-02-27T03:50:07.207Z,-1.68
2019-02-27T03:53:26.845Z,-1.74
2019-02-27T03:56:20.162Z,-1.86
2019-02-27T03:59:11.476Z,-1.99
2019-02-27T04:02:22.335Z,-2.14
2019-02-27T04:05:24.166Z,-2.26
2019-02-27T04:08:32.779Z,-2.31
2019-02-27T04:11:05.845Z,-2.43
2019-02-27T04:13:34.988Z,-2.49
2019-02-27T04:16:04.949Z,-2.57
2019-02-27T04:18:33.739Z,-2.59
2019-02-27T04:21:03.736Z,-2.70
2019-02-27T04:23:33.670Z,-2.67
2019-02-27T04:26:05.829Z,-2.84
2019-02-27T04:28:35.236Z,-2.83
2019-02-27T04:31:05.707Z,-2.82
2019-02-27T04:33:35.741Z,-2.85
2019-02-27T04:36:06.378Z,-2.84
2019-02-27T04:38:36.651Z,-2.85
2019-02-27T04:41:06.676Z,-2.90
2019-02-27T04:43:37.036Z,-2.93
2019-02-27T04:46:07.155Z,-2.97
2019-02-27T04:48:37.277Z,-3.13
2019-02-27T04:51:07.417Z,-3.12
2019-02-27T04:53:37.564Z,-3.24
2019-02-27T04:56:08.454Z,-3.26
2019-02-27T04:58:42.751Z,-3.38
2019-02-27T05:01:10.345Z,-3.33
2019-02-27T05:03:40.318Z,-3.28
2019-02-27T05:06:28.961Z,-3.34
2019-02-27T05:09:17.776Z,-3.35
2019-02-27T05:12:06.541Z,-3.24
2019-02-27T05:14:54.957Z,-3.20
2019-02-27T05:17:43.424Z,-3.24
2019-02-27T05:20:31.958Z,-3.24
2019-02-27T05:23:20.562Z,-3.26
2019-02-27T05:26:08.964Z,-3.23
2019-02-27T05:28:57.842Z,-3.14
2019-02-27T05:31:28.761Z,-3.12
2019-02-27T05:33:58.841Z,-3.07
2019-02-27T05:36:31.451Z,-3.06
2019-02-27T05:39:00.778Z,-3.00
2019-02-27T05:41:33.074Z,-2.95
2019-02-27T05:44:02.747Z,-2.87
2019-02-27T05:46:41.911Z,-2.74
2019-02-27T05:49:12.291Z,-2.80
2019-02-27T05:51:42.490Z,-2.85
2019-02-27T05:54:12.842Z,-2.75
2019-02-27T05:56:42.734Z,-2.71
2019-02-27T05:59:12.834Z,-2.58
2019-02-27T06:01:43.287Z,-2.69
2019-02-27T06:04:13.569Z,-2.56
2019-02-27T06:06:45.675Z,-2.51
2019-02-27T06:09:16.325Z,-2.39
2019-02-27T06:11:46.569Z,-2.38
2019-02-27T06:14:21.199Z,-2.44
2019-02-27T06:16:49.306Z,-2.52
2019-02-27T06:19:19.532Z,-2.62
2019-02-27T06:21:49.738Z,-2.55
2019-02-27T06:24:20.075Z,-2.36
2019-02-27T06:26:50.305Z,-2.27
2019-02-27T06:29:23.161Z,-2.17
2019-02-27T06:31:52.390Z,-2.33
2019-02-27T06:34:24.852Z,-2.21
2019-02-27T06:36:54.925Z,-2.23
2019-02-27T06:39:25.034Z,-2.29
2019-02-27T06:41:55.446Z,-2.28
2019-02-27T06:44:25.467Z,-2.16
2019-02-27T06:46:55.596Z,-2.14
2019-02-27T06:49:25.859Z,-2.14
2019-02-27T06:51:56.387Z,-2.11
2019-02-27T06:54:26.676Z,-1.99
2019-02-27T06:56:57.014Z,-2.00
2019-02-27T06:59:27.258Z,-1.95
2019-02-27T07:01:58.374Z,-1.90
2019-02-27T07:04:28.935Z,-1.95
2019-02-27T07:07:00.573Z,-1.90
2019-02-27T07:09:31.046Z,-1.81
2019-02-27T07:12:01.465Z,-1.85
2019-02-27T07:14:31.899Z,-1.73
2019-02-27T07:17:02.246Z,-1.62
2019-02-27T07:19:35.101Z,-1.64
2019-02-27T07:22:06.241Z,-1.53
2019-02-27T07:24:37.695Z,-1.49
2019-02-27T07:27:08.371Z,-1.36
2019-02-27T07:29:38.383Z,-1.49
2019-02-27T07:32:08.755Z,-1.56
2019-02-27T07:34:38.967Z,-1.37
2019-02-27T07:37:10.425Z,-1.25
2019-02-27T07:39:42.188Z,-1.17
2019-02-27T07:44:53.259Z,-0.83
2019-02-27T07:47:24.702Z,-0.66
2019-02-27T07:49:56.236Z,-0.55
2019-02-27T07:52:32.226Z,-0.68
2019-02-27T07:55:00.572Z,-0.56
2019-02-27T07:57:30.799Z,-0.36
2019-02-27T08:00:01.534Z,-0.10
2019-02-27T08:02:33.733Z,0.04
2019-02-27T08:05:06.477Z,0.28
2019-02-27T08:07:37.780Z,0.39
2019-02-27T08:10:12.293Z,0.35
2019-02-27T08:12:42.818Z,0.30
2019-02-27T08:15:14.700Z,0.46
2019-02-27T08:17:57.331Z,0.18
2019-02-27T08:20:29.462Z,0.26
2019-02-27T08:23:00.159Z,-0.14
2019-02-27T08:25:30.754Z,-0.02
2019-02-27T08:28:01.016Z,0.03
2019-02-27T08:30:31.515Z,0.01
2019-02-27T08:33:02.172Z,0.12
2019-02-27T08:35:35.435Z,0.23
2019-02-27T08:38:05.878Z,-0.33
2019-02-27T08:40:38.778Z,-0.43
2019-02-27T08:43:10.256Z,-0.32
2019-02-27T08:45:42.274Z,-0.24
2019-02-27T08:48:17.100Z,-0.08
2019-02-27T08:50:44.775Z,-0.19
2019-02-27T08:53:14.650Z,-0.13
2019-02-27T08:55:44.981Z,0.00
2019-02-27T08:58:15.227Z,0.07
2019-02-27T09:00:47.476Z,0.09
2019-02-27T09:03:20.562Z,0.12
2019-02-27T09:05:51.090Z,0.22
2019-02-27T09:08:22.300Z,0.19
2019-02-27T09:10:52.336Z,0.12
2019-02-27T09:13:22.415Z,0.17
2019-02-27T09:15:52.650Z,0.24
2019-02-27T09:18:23.058Z,0.31
2019-02-27T09:20:54.148Z,0.33
2019-02-27T09:23:24.629Z,0.05
2019-02-27T09:25:57.260Z,0.05
2019-02-27T09:28:26.315Z,0.20
2019-02-27T09:30:57.121Z,0.13
2019-02-27T09:33:27.204Z,0.08
2019-02-27T09:35:57.534Z,0.03
2019-02-27T09:38:27.507Z,0.41
2019-02-27T09:40:57.589Z,0.50
2019-02-27T09:43:27.953Z,0.52
2019-02-27T09:45:58.136Z,0.64
2019-02-27T09:48:28.276Z,0.81
2019-02-27T09:50:58.700Z,0.65
2019-02-27T09:53:29.069Z,0.56
2019-02-27T09:55:59.154Z,0.68
2019-02-27T09:58:29.366Z,0.68
2019-02-27T10:01:09.873Z,0.71
2019-02-27T10:03:40.344Z,0.79
2019-02-27T10:06:10.757Z,1.04
2019-02-27T10:08:41.110Z,0.94
2019-02-27T10:11:11.096Z,0.52
2019-02-27T10:13:41.429Z,0.53
2019-02-27T10:16:11.699Z,0.78
2019-02-27T10:18:42.014Z,0.70
2019-02-27T10:21:12.732Z,0.70
2019-02-27T10:23:43.229Z,0.69
2019-02-27T10:26:13.275Z,0.53
2019-02-27T10:28:44.105Z,0.63
2019-02-27T10:31:14.602Z,0.81
2019-02-27T10:33:44.711Z,0.58
2019-02-27T10:36:16.260Z,0.66
2019-02-27T10:38:46.743Z,0.66
2019-02-27T10:41:17.202Z,0.71
2019-02-27T10:43:47.085Z,0.86
2019-02-27T10:46:17.112Z,0.84
2019-02-27T10:48:47.663Z,0.79
2019-02-27T10:51:18.757Z,1.01
2019-02-27T10:53:50.350Z,1.14
2019-02-27T10:56:21.591Z,1.22
2019-02-27T10:58:52.542Z,1.35
2019-02-27T11:01:22.658Z,1.60
2019-02-27T11:03:54.601Z,1.83
2019-02-27T11:06:33.473Z,1.77
2019-02-27T11:08:56.338Z,1.80
2019-02-27T11:11:26.622Z,1.80
2019-02-27T11:13:57.285Z,2.09
2019-02-27T11:16:28.029Z,2.22
2019-02-27T11:18:58.926Z,1.92
2019-02-27T11:21:28.899Z,1.83
2019-02-27T11:23:59.422Z,2.04
2019-02-27T11:26:33.949Z,2.09
2019-02-27T11:29:03.351Z,1.78
2019-02-27T11:31:33.321Z,1.76
2019-02-27T11:34:05.066Z,1.69
2019-02-27T11:36:39.066Z,1.84
2019-02-27T11:39:08.037Z,2.05
2019-02-27T11:41:39.031Z,2.20
2019-02-27T11:44:08.989Z,2.17
2019-02-27T11:46:39.077Z,2.28
2019-02-27T11:49:09.697Z,2.13
2019-02-27T11:51:39.738Z,2.11
2019-02-27T11:54:09.785Z,2.01
2019-02-27T11:56:39.999Z,2.24
2019-02-27T11:59:12.947Z,2.16
2019-02-27T12:01:42.320Z,1.88
2019-02-27T12:04:13.401Z,1.88
2019-02-27T12:06:43.700Z,1.59
2019-02-27T12:09:13.981Z,1.59
2019-02-27T12:11:48.382Z,1.68
2019-02-27T12:14:19.920Z,1.72
2019-02-27T12:16:52.507Z,1.75
2019-02-27T12:19:22.754Z,1.88
2019-02-27T12:21:53.057Z,1.97
2019-02-27T12:24:23.587Z,1.94
2019-02-27T12:26:54.099Z,1.82
2019-02-27T12:29:26.520Z,1.64
2019-02-27T12:31:56.184Z,1.57
2019-02-27T12:34:26.359Z,1.55
2019-02-27T12:36:56.534Z,1.37
2019-02-27T12:39:26.446Z,1.48
2019-02-27T12:41:56.413Z,1.56
2019-02-27T12:44:26.883Z,1.65
2019-02-27T12:46:56.951Z,1.65
2019-02-27T12:49:27.234Z,1.62
2019-02-27T12:51:57.447Z,1.50
2019-02-27T12:54:27.807Z,1.47
2019-02-27T12:56:57.797Z,1.48
2019-02-27T12:59:27.914Z,1.55
2019-02-27T13:01:58.490Z,1.62
2019-02-27T13:04:29.617Z,1.66
2019-02-27T13:06:59.705Z,1.65
2019-02-27T13:09:33.531Z,1.66
2019-02-27T13:12:03.691Z,1.73
2019-02-27T13:14:34.642Z,1.74
2019-02-27T13:17:09.224Z,1.63
2019-02-27T13:19:39.567Z,1.57
2019-02-27T13:22:09.617Z,1.47
2019-02-27T13:24:39.609Z,1.44
2019-02-27T13:27:09.925Z,1.42
2019-02-27T13:29:44.539Z,1.29
2019-02-27T13:32:14.848Z,1.22
2019-02-27T13:34:48.228Z,1.17
2019-02-27T13:37:18.738Z,1.13
2019-02-27T13:39:48.673Z,1.14
2019-02-27T13:42:19.237Z,1.16
2019-02-27T13:44:49.436Z,1.01
2019-02-27T13:47:19.339Z,1.00
2019-02-27T13:49:49.341Z,0.96
2019-02-27T13:52:19.563Z,0.93
2019-02-27T13:54:49.915Z,0.95
2019-02-27T13:57:24.968Z,1.01
2019-02-27T13:59:52.612Z,0.79
2019-02-27T14:02:22.890Z,0.77
2019-02-27T14:04:53.722Z,0.66
2019-02-27T14:07:27.191Z,0.58
2019-02-27T14:09:57.370Z,0.47
2019-02-27T14:12:29.985Z,0.38
2019-02-27T14:14:59.684Z,0.40
2019-02-27T14:17:29.654Z,0.26
2019-02-27T14:19:59.806Z,0.16
2019-02-27T14:22:29.953Z,0.13
2019-02-27T14:25:00.300Z,0.18
2019-02-27T14:27:30.875Z,0.23
2019-02-27T14:30:03.482Z,0.18
2019-02-27T14:32:32.674Z,0.17
2019-02-27T14:35:02.836Z,0.10
2019-02-27T14:37:32.994Z,0.07
2019-02-27T14:40:04.502Z,0.00
2019-02-27T14:42:35.314Z,0.11
2019-02-27T14:45:08.814Z,0.13
2019-02-27T14:47:38.935Z,0.13
2019-02-27T14:50:10.630Z,0.08
2019-02-27T14:52:40.914Z,0.08
2019-02-27T14:55:11.772Z,0.02
2019-02-27T14:57:42.125Z,0.01
2019-02-27T15:00:16.086Z,-0.01
2019-02-27T15:02:46.400Z,-0.01
2019-02-27T15:05:16.831Z,-0.04
2019-02-27T15:07:47.336Z,-0.10
2019-02-27T15:10:17.631Z,-0.19
2019-02-27T15:12:48.037Z,-0.26
2019-02-27T15:15:21.000Z,-0.28
2019-02-27T15:17:51.864Z,-0.37
2019-02-27T15:20:22.998Z,-0.33
2019-02-27T15:22:53.791Z,-0.32
2019-02-27T15:25:24.196Z,-0.35
2019-02-27T15:27:58.361Z,-0.35
2019-02-27T15:30:27.547Z,-0.36
2019-02-27T15:32:58.031Z,-0.35
2019-02-27T15:35:28.453Z,-0.29
2019-02-27T15:37:58.537Z,-0.26
2019-02-27T15:40:29.991Z,-0.24
2019-02-27T15:43:00.563Z,-0.29
2019-02-27T15:45:30.617Z,-0.31
2019-02-27T15:48:06.478Z,-0.33
2019-02-27T15:50:34.303Z,-0.36
2019-02-27T15:53:04.987Z,-0.38
2019-02-27T15:55:37.803Z,-0.41
2019-02-27T15:58:07.802Z,-0.35
2019-02-27T16:00:38.146Z,-0.28
2019-02-27T16:03:10.678Z,-0.32
2019-02-27T16:05:40.249Z,-0.32
2019-02-27T16:08:11.178Z,-0.33
2019-02-27T16:10:43.725Z,-0.31
2019-02-27T16:13:14.053Z,-0.30
2019-02-27T16:15:44.720Z,-0.28
2019-02-27T16:18:15.122Z,-0.25
2019-02-27T16:20:47.097Z,-0.23
2019-02-27T16:23:18.636Z,-0.18
2019-02-27T16:25:52.829Z,-0.12
2019-02-27T16:28:21.291Z,-0.07
2019-02-27T16:30:52.021Z,-0.04
2019-02-27T16:33:24.059Z,0.03
2019-02-27T16:35:54.764Z,0.10
2019-02-27T16:38:25.415Z,0.18
2019-02-27T16:40:55.827Z,0.16
2019-02-27T16:43:26.509Z,0.20
2019-02-27T16:45:56.715Z,0.20
2019-02-27T16:48:27.126Z,0.18
2019-02-27T16:50:57.426Z,0.15
2019-02-27T16:53:29.685Z,0.11
2019-02-27T16:56:00.117Z,0.13
2019-02-27T16:58:32.967Z,0.15
2019-02-27T17:01:02.714Z,0.11
2019-02-27T17:03:32.932Z,0.10
2019-02-27T17:06:03.138Z,0.03
2019-02-27T17:08:35.678Z,-0.04
2019-02-27T17:11:05.538Z,-0.03
2019-02-27T17:13:35.679Z,-0.03
2019-02-27T17:16:07.132Z,-0.05
2019-02-27T17:18:38.287Z,-0.05
2019-02-27T17:21:08.731Z,-0.06
2019-02-27T17:23:43.793Z,-0.04
2019-02-27T17:26:12.606Z,-0.02
2019-02-27T17:28:42.845Z,-0.03
2019-02-27T17:31:13.121Z,-0.01
2019-02-27T17:33:43.613Z,0.01
2019-02-27T17:36:14.012Z,0.05
2019-02-27T17:38:45.261Z,0.04
2019-02-27T17:41:17.008Z,0.04
2019-02-27T17:43:47.720Z,0.13
2019-02-27T17:46:20.499Z,0.20
2019-02-27T17:48:50.176Z,0.24
2019-02-27T17:51:20.362Z,0.25
2019-02-27T17:53:50.762Z,0.24
2019-02-27T17:56:21.390Z,0.21
2019-02-27T17:58:51.961Z,0.22
2019-02-27T18:01:25.014Z,0.22
2019-02-27T18:03:54.372Z,0.24
2019-02-27T18:06:24.996Z,0.26
2019-02-27T18:08:55.822Z,0.26
2019-02-27T18:11:26.437Z,0.28
2019-02-27T18:13:57.135Z,0.27
2019-02-27T18:16:27.986Z,0.25
2019-02-27T18:18:58.815Z,0.20
2019-02-27T18:21:33.251Z,0.19
2019-02-27T18:24:01.367Z,0.17
2019-02-27T18:26:31.652Z,0.08
2019-02-27T18:29:07.739Z,0.05
2019-02-27T18:31:37.274Z,0.08
2019-02-27T18:34:07.726Z,0.13
2019-02-27T18:36:42.876Z,0.17
2019-02-27T18:39:10.153Z,0.19
2019-02-27T18:41:40.306Z,0.21
2019-02-27T18:44:11.355Z,0.27
2019-02-27T18:46:41.463Z,0.27
2019-02-27T18:49:11.660Z,0.32
2019-02-27T18:51:42.273Z,0.38
2019-02-27T18:54:12.473Z,0.38
2019-02-27T18:56:42.897Z,0.39
2019-02-27T18:59:13.439Z,0.42
2019-02-27T19:01:45.204Z,0.41
2019-02-27T19:04:16.029Z,0.39
2019-02-27T19:06:47.016Z,0.41
2019-02-27T19:09:17.158Z,0.39
2019-02-27T19:11:50.901Z,0.37
2019-02-27T19:14:19.733Z,0.34
2019-02-27T19:16:52.165Z,0.34
2019-02-27T19:19:22.832Z,0.36
2019-02-27T19:21:52.868Z,0.37
2019-02-27T19:24:26.665Z,0.41
2019-02-27T19:26:55.367Z,0.46
2019-02-27T19:29:25.572Z,0.49
2019-02-27T19:31:55.920Z,0.44
2019-02-27T19:34:25.987Z,0.43
2019-02-27T19:36:56.261Z,0.43
2019-02-27T19:39:26.732Z,0.41
2019-02-27T19:41:56.964Z,0.39
2019-02-27T19:44:29.200Z,0.37
2019-02-27T19:46:59.579Z,0.35
2019-02-27T19:49:30.018Z,0.36
2019-02-27T19:52:00.187Z,0.34
2019-02-27T19:54:30.257Z,0.37
2019-02-27T19:57:00.827Z,0.39
2019-02-27T19:59:31.574Z,0.43
2019-02-27T20:02:01.731Z,0.44
2019-02-27T20:04:31.954Z,0.43
2019-02-27T20:07:02.539Z,0.43
2019-02-27T20:09:32.841Z,0.43
2019-02-27T20:12:03.287Z,0.50
2019-02-27T20:14:36.669Z,0.50
2019-02-27T20:17:07.146Z,0.48
2019-02-27T20:19:37.599Z,0.53
2019-02-27T20:22:07.810Z,0.50
2019-02-27T20:24:38.276Z,0.53
2019-02-27T20:27:09.204Z,0.55
2019-02-27T20:29:43.313Z,0.58
2019-02-27T20:32:13.751Z,0.58
2019-02-27T20:34:45.899Z,0.60
2019-02-27T20:37:15.782Z,0.59
2019-02-27T20:39:45.776Z,0.55
2019-02-27T20:42:15.906Z,0.57
2019-02-27T20:44:46.817Z,0.56
2019-02-27T20:47:16.902Z,0.58
2019-02-27T20:49:48.043Z,0.59
2019-02-27T20:52:18.205Z,0.60
2019-02-27T20:54:48.394Z,0.60
2019-02-27T20:57:18.927Z,0.61
2019-02-27T20:59:49.028Z,0.66
2019-02-27T21:02:19.696Z,0.73
2019-02-27T21:04:50.497Z,0.78
2019-02-27T21:07:22.411Z,0.75
2019-02-27T21:09:52.452Z,0.77
2019-02-27T21:12:23.120Z,0.76
2019-02-27T21:14:55.163Z,0.73
2019-02-27T21:17:25.150Z,0.75
2019-02-27T21:19:55.258Z,0.78
2019-02-27T21:22:27.760Z,0.78
2019-02-27T21:24:57.367Z,0.82
2019-02-27T21:27:28.481Z,0.89
2019-02-27T21:29:58.925Z,0.90
2019-02-27T21:32:29.063Z,0.81
2019-02-27T21:34:58.938Z,0.78
2019-02-27T21:37:28.873Z,0.77
2019-02-27T21:40:02.116Z,0.78
2019-02-27T21:42:32.717Z,0.78
2019-02-27T21:45:03.605Z,0.78
2019-02-27T21:47:34.686Z,0.80
2019-02-27T21:50:07.146Z,0.80
2019-02-27T21:52:37.443Z,0.79
2019-02-27T21:55:12.549Z,0.82
2019-02-27T21:57:40.255Z,0.78
2019-02-27T22:00:14.000Z,0.79
2019-02-27T22:02:44.978Z,0.76
2019-02-27T22:05:18.518Z,0.75
2019-02-27T22:07:47.828Z,0.73
2019-02-27T22:10:19.451Z,0.71
2019-02-27T22:12:49.639Z,0.63
2019-02-27T22:15:24.966Z,0.58
2019-02-27T22:17:54.998Z,0.58
2019-02-27T22:20:25.802Z,0.58
2019-02-27T22:22:56.794Z,0.60
2019-02-27T22:25:31.031Z,0.67
2019-02-27T22:27:58.841Z,0.70
2019-02-27T22:30:31.679Z,0.70
2019-02-27T22:33:00.352Z,0.72
2019-02-27T22:35:30.586Z,0.67
2019-02-27T22:38:00.558Z,0.64
2019-02-27T22:40:30.670Z,0.56
2019-02-27T22:43:00.630Z,0.41
2019-02-27T22:45:30.451Z,0.31
2019-02-27T22:48:00.329Z,0.17
2019-02-27T22:50:30.817Z,0.07
2019-02-27T22:53:00.973Z,-0.05
2019-02-27T22:55:30.921Z,-0.15
2019-02-27T22:58:00.823Z,-0.23
2019-02-27T23:01:03.915Z,-0.29
2019-02-27T23:03:49.669Z,-0.42
2019-02-27T23:06:20.135Z,-0.50
2019-02-27T23:08:50.322Z,-0.57
2019-02-27T23:11:20.157Z,-0.60
2019-02-27T23:13:50.192Z,-0.64
2019-02-27T23:16:21.290Z,-0.69
2019-02-27T23:18:51.093Z,-0.65
2019-02-27T23:21:21.074Z,-0.51
2019-02-27T23:23:51.039Z,-0.32
2019-02-27T23:26:21.122Z,-0.17
2019-02-27T23:28:51.089Z,-0.03
2019-02-27T23:31:23.387Z,0.11
2019-02-27T23:33:53.419Z,0.20
2019-02-27T23:36:23.754Z,0.32
2019-02-27T23:38:53.966Z,0.40
2019-02-27T23:41:24.001Z,0.49
2019-02-27T23:43:53.988Z,0.56
2019-02-27T23:46:24.132Z,0.60
2019-02-27T23:48:54.395Z,0.62
2019-02-27T23:51:24.846Z,0.64
2019-02-27T23:53:55.087Z,0.63
2019-02-27T23:56:25.021Z,0.64
2019-02-27T23:58:55.068Z,0.69
